createdAt,value
2018-04-27T00:01:14.680Z,74.30
2018-04-27T00:03:42.145Z,74.40
2018-04-27T00:06:09.653Z,74.30
2018-04-27T00:08:37.906Z,74.50
2018-04-27T00:11:05.373Z,74.40
2018-04-27T00:13:32.936Z,74.70
2018-04-27T00:16:00.402Z,74.40
2018-04-27T00:18:28.641Z,74.60
2018-04-27T00:20:56.139Z,74.50
2018-04-27T00:23:24.376Z,74.50
2018-04-27T00:25:51.840Z,74.40
2018-04-27T00:28:19.435Z,74.40
2018-04-27T00:30:46.913Z,74.50
2018-04-27T00:33:14.440Z,74.50
2018-04-27T00:35:42.756Z,74.50
2018-04-27T00:38:10.213Z,74.40
2018-04-27T00:40:37.717Z,74.60
2018-04-27T00:45:52.300Z,74.80
2018-04-27T00:48:19.756Z,74.80
2018-04-27T00:50:47.243Z,74.50
2018-04-27T00:53:15.480Z,74.80
2018-04-27T00:55:42.972Z,74.70
2018-04-27T00:58:11.208Z,74.90
2018-04-27T01:00:38.761Z,74.80
2018-04-27T01:03:10.365Z,74.60
2018-04-27T01:05:38.604Z,74.70
2018-04-27T01:08:06.103Z,74.60
2018-04-27T01:10:34.329Z,74.70
2018-04-27T01:13:01.838Z,74.60
2018-04-27T01:15:30.054Z,74.60
2018-04-27T01:17:57.549Z,74.50
2018-04-27T01:20:25.131Z,74.70
2018-04-27T01:22:53.374Z,74.80
2018-04-27T01:25:20.876Z,74.70
2018-04-27T01:27:48.373Z,74.70
2018-04-27T01:30:15.853Z,74.80
2018-04-27T01:32:43.353Z,74.70
2018-04-27T01:35:10.893Z,74.70
2018-04-27T01:37:38.359Z,74.70
2018-04-27T01:40:05.845Z,74.80
2018-04-27T01:42:37.130Z,74.60
2018-04-27T01:45:04.599Z,74.70
2018-04-27T01:47:32.197Z,75.00
2018-04-27T01:49:59.705Z,75.00
2018-04-27T01:52:27.184Z,74.90
2018-04-27T01:54:55.465Z,75.00
2018-04-27T01:57:23.709Z,75.00
2018-04-27T01:59:51.173Z,74.90
2018-04-27T02:04:51.343Z,74.80
2018-04-27T02:07:19.568Z,74.90
2018-04-27T02:09:47.071Z,74.70
2018-04-27T02:12:14.538Z,74.80
2018-04-27T02:14:42.773Z,74.90
2018-04-27T02:17:10.228Z,74.80
2018-04-27T02:28:09.792Z,75.00
2018-04-27T02:30:37.372Z,74.80
2018-04-27T02:33:06.144Z,74.90
2018-04-27T02:35:33.649Z,75.00
2018-04-27T02:38:02.121Z,75.20
2018-04-27T02:40:30.368Z,75.00
2018-04-27T02:42:57.845Z,74.90
2018-04-27T02:45:31.398Z,74.90
2018-04-27T02:47:58.979Z,75.00
2018-04-27T02:50:26.469Z,75.20
2018-04-27T02:52:54.763Z,75.50
2018-04-27T02:55:22.258Z,75.40
2018-04-27T02:57:49.744Z,75.30
2018-04-27T03:00:17.460Z,75.20
2018-04-27T03:02:44.939Z,75.10
2018-04-27T03:05:12.412Z,75.30
2018-04-27T03:07:39.945Z,75.60
2018-04-27T03:10:07.416Z,75.40
2018-04-27T03:12:34.873Z,75.40
2018-04-27T03:15:02.381Z,75.40
2018-04-27T03:17:29.861Z,75.40
2018-04-27T03:19:57.330Z,75.40
2018-04-27T03:22:25.023Z,75.30
2018-04-27T03:24:54.466Z,75.40
2018-04-27T03:27:22.702Z,75.50
2018-04-27T03:29:50.234Z,76.10
2018-04-27T03:32:17.705Z,75.30
2018-04-27T03:34:45.192Z,75.50
2018-04-27T03:37:12.971Z,75.50
2018-04-27T03:39:41.447Z,76.30
2018-04-27T03:42:08.904Z,75.50
2018-04-27T03:44:36.412Z,75.30
2018-04-27T03:47:03.937Z,75.60
2018-04-27T03:49:32.438Z,75.70
2018-04-27T03:51:59.952Z,75.70
2018-04-27T03:54:27.557Z,75.50
2018-04-27T03:56:55.049Z,75.60
2018-04-27T03:59:34.406Z,75.60
2018-04-27T04:02:13.625Z,75.70
2018-04-27T04:04:52.901Z,75.70
2018-04-27T04:07:21.155Z,75.90
2018-04-27T04:09:48.646Z,75.90
2018-04-27T04:12:16.349Z,75.80
2018-04-27T04:14:43.853Z,75.80
2018-04-27T04:17:12.139Z,75.80
2018-04-27T04:19:39.849Z,75.70
2018-04-27T04:22:07.393Z,75.60
2018-04-27T04:24:34.939Z,75.70
2018-04-27T04:27:02.706Z,75.60
2018-04-27T04:29:30.252Z,75.60
2018-04-27T04:31:57.749Z,75.70
2018-04-27T04:37:21.006Z,75.60
2018-04-27T04:39:48.884Z,75.70
2018-04-27T04:42:16.412Z,76.00
2018-04-27T04:44:43.939Z,76.10
2018-04-27T04:47:11.546Z,76.00
2018-04-27T04:49:39.355Z,75.90
2018-04-27T04:52:06.967Z,75.90
2018-04-27T04:54:34.494Z,75.90
2018-04-27T04:57:02.012Z,76.00
2018-04-27T04:59:29.596Z,76.10
2018-04-27T05:01:57.111Z,76.20
2018-04-27T05:04:24.636Z,76.10
2018-04-27T05:06:53.130Z,76.20
2018-04-27T05:09:21.506Z,76.30
2018-04-27T05:11:50.732Z,76.70
2018-04-27T05:14:18.268Z,76.50
2018-04-27T05:16:45.783Z,76.50
2018-04-27T05:25:09.455Z,76.30
2018-04-27T05:27:36.915Z,76.30
2018-04-27T05:30:04.409Z,76.40
2018-04-27T05:32:31.954Z,76.00
2018-04-27T05:35:00.732Z,75.50
2018-04-27T05:37:29.058Z,75.10
2018-04-27T05:39:57.064Z,75.00
2018-04-27T05:42:24.648Z,74.70
2018-04-27T05:44:52.129Z,74.60
2018-04-27T05:47:19.666Z,74.60
2018-04-27T05:52:37.793Z,74.90
2018-04-27T05:55:06.064Z,75.30
2018-04-27T05:57:34.546Z,75.50
2018-04-27T06:00:02.091Z,75.40
2018-04-27T06:02:29.591Z,76.10
2018-04-27T06:04:57.105Z,75.60
2018-04-27T06:07:24.588Z,75.60
2018-04-27T06:09:52.061Z,75.80
2018-04-27T06:12:19.639Z,75.80
2018-04-27T06:14:47.105Z,75.80
2018-04-27T06:17:14.622Z,75.60
2018-04-27T06:19:49.017Z,75.40
2018-04-27T06:22:16.536Z,75.50
2018-04-27T06:24:44.023Z,75.30
2018-04-27T06:27:11.622Z,75.30
2018-04-27T06:29:40.518Z,75.30
2018-04-27T06:32:08.026Z,75.10
2018-04-27T06:34:35.607Z,75.00
2018-04-27T06:37:03.094Z,75.10
2018-04-27T06:39:30.678Z,75.10
2018-04-27T06:41:59.231Z,75.10
2018-04-27T06:44:27.470Z,75.10
2018-04-27T06:46:54.949Z,75.00
2018-04-27T06:49:22.541Z,75.00
2018-04-27T06:51:50.277Z,75.00
2018-04-27T06:54:17.782Z,74.90
2018-04-27T06:56:45.355Z,74.90
2018-04-27T06:59:12.889Z,75.00
2018-04-27T07:01:40.412Z,74.80
2018-04-27T07:04:07.894Z,74.60
2018-04-27T07:06:35.389Z,74.40
2018-04-27T07:09:02.889Z,74.80
2018-04-27T07:11:31.161Z,74.70
2018-04-27T07:13:58.789Z,74.60
2018-04-27T07:16:26.292Z,74.60
2018-04-27T07:18:53.801Z,74.60
2018-04-27T07:21:21.375Z,74.50
2018-04-27T07:23:48.803Z,74.60
2018-04-27T07:26:16.351Z,74.40
2018-04-27T07:28:43.857Z,74.30
2018-04-27T07:31:11.545Z,74.40
2018-04-27T07:33:39.785Z,74.10
2018-04-27T07:36:10.256Z,74.00
2018-04-27T07:38:38.605Z,74.10
2018-04-27T07:41:06.067Z,73.90
2018-04-27T07:43:33.533Z,73.90
2018-04-27T07:46:05.226Z,73.90
2018-04-27T07:48:39.165Z,73.80
2018-04-27T07:51:06.722Z,72.70
2018-04-27T07:53:34.443Z,72.70
2018-04-27T07:56:05.554Z,72.60
2018-04-27T07:58:33.132Z,72.60
2018-04-27T08:01:00.589Z,72.50
2018-04-27T08:03:28.047Z,72.40
2018-04-27T08:05:55.699Z,72.20
2018-04-27T08:08:23.166Z,72.30
2018-04-27T08:10:50.648Z,72.30
2018-04-27T08:13:18.194Z,72.20
2018-04-27T08:15:46.432Z,71.90
2018-04-27T08:18:13.962Z,71.80
2018-04-27T08:20:41.594Z,71.80
2018-04-27T08:23:09.827Z,71.50
2018-04-27T08:25:37.424Z,71.40
2018-04-27T08:28:04.880Z,71.30
2018-04-27T08:30:32.440Z,71.10
2018-04-27T08:33:00.701Z,71.60
2018-04-27T08:35:28.165Z,70.80
2018-04-27T08:37:55.750Z,71.30
2018-04-27T08:40:23.304Z,70.50
2018-04-27T08:42:51.668Z,70.30
2018-04-27T08:45:19.254Z,70.20
2018-04-27T08:47:46.876Z,70.20
2018-04-27T09:01:41.349Z,69.80
2018-04-27T09:04:08.847Z,69.80
2018-04-27T09:06:36.347Z,69.80
2018-04-27T09:09:03.988Z,69.60
2018-04-27T09:11:31.477Z,69.30
2018-04-27T09:13:58.980Z,69.30
2018-04-27T09:16:26.498Z,69.10
2018-04-27T09:18:54.028Z,68.90
2018-04-27T09:21:21.524Z,68.80
2018-04-27T09:23:49.050Z,68.80
2018-04-27T09:26:16.544Z,68.40
2018-04-27T09:28:44.176Z,68.20
2018-04-27T09:31:12.396Z,67.90
2018-04-27T09:33:40.636Z,67.70
2018-04-27T09:36:08.165Z,67.60
2018-04-27T09:38:35.665Z,67.50
2018-04-27T09:41:03.258Z,67.30
2018-04-27T09:43:30.926Z,67.00
2018-04-27T09:45:58.412Z,67.00
2018-04-27T09:48:26.700Z,66.70
2018-04-27T09:50:54.385Z,66.50
2018-04-27T09:53:21.925Z,66.50
2018-04-27T09:55:49.395Z,66.40
2018-04-27T09:58:16.914Z,66.00
2018-04-27T10:00:44.567Z,65.30
2018-04-27T10:03:12.061Z,65.20
2018-04-27T10:05:39.648Z,65.50
2018-04-27T10:08:07.312Z,65.50
2018-04-27T10:10:35.043Z,65.10
2018-04-27T10:13:03.292Z,64.80
2018-04-27T10:15:30.901Z,64.80
2018-04-27T10:17:58.404Z,64.50
2018-04-27T10:20:25.933Z,64.10
2018-04-27T10:22:53.448Z,64.20
2018-04-27T10:25:21.761Z,63.90
2018-04-27T10:27:49.262Z,63.80
2018-04-27T10:30:16.804Z,63.90
2018-04-27T10:32:45.051Z,63.30
2018-04-27T10:35:12.500Z,63.30
2018-04-27T10:37:39.980Z,62.90
2018-04-27T10:40:07.428Z,62.80
2018-04-27T10:42:50.012Z,62.40
2018-04-27T10:45:17.516Z,62.70
2018-04-27T10:47:45.021Z,62.60
2018-04-27T10:50:12.538Z,62.80
2018-04-27T10:52:40.061Z,62.50
2018-04-27T10:55:07.524Z,62.10
2018-04-27T10:57:34.998Z,62.20
2018-04-27T11:00:02.617Z,62.30
2018-04-27T11:02:30.186Z,62.90
2018-04-27T11:04:57.663Z,61.70
2018-04-27T11:07:25.144Z,61.80
2018-04-27T11:09:52.669Z,61.50
2018-04-27T11:12:20.248Z,61.40
2018-04-27T11:14:47.741Z,61.20
2018-04-27T11:17:15.397Z,60.90
2018-04-27T11:19:43.653Z,60.70
2018-04-27T11:22:12.018Z,60.60
2018-04-27T11:24:39.530Z,60.60
2018-04-27T11:27:07.040Z,60.30
2018-04-27T11:29:35.868Z,59.60
2018-04-27T11:32:03.322Z,59.20
2018-04-27T11:34:31.682Z,59.60
2018-04-27T11:45:36.216Z,59.40
2018-04-27T11:48:03.957Z,59.00
2018-04-27T11:50:31.513Z,59.00
2018-04-27T11:52:59.752Z,58.80
2018-04-27T11:55:31.288Z,58.80
2018-04-27T11:57:58.768Z,58.00
2018-04-27T12:00:27.042Z,58.40
2018-04-27T12:05:49.527Z,58.20
2018-04-27T12:08:17.060Z,58.30
2018-04-27T12:10:44.618Z,58.00
2018-04-27T12:13:12.785Z,57.20
2018-04-27T12:15:40.277Z,56.60
2018-04-27T12:21:10.765Z,57.10
2018-04-27T12:23:38.288Z,57.10
2018-04-27T12:26:06.531Z,56.70
2018-04-27T12:28:34.004Z,56.60
2018-04-27T12:31:01.616Z,56.50
2018-04-27T12:33:29.070Z,55.90
2018-04-27T12:35:56.569Z,56.00
2018-04-27T12:38:24.111Z,56.10
2018-04-27T12:40:51.560Z,56.10
2018-04-27T12:43:19.008Z,55.60
2018-04-27T12:45:46.516Z,55.00
2018-04-27T12:48:14.072Z,55.00
2018-04-27T12:50:41.535Z,54.60
2018-04-27T12:53:24.841Z,54.80
2018-04-27T12:55:52.292Z,54.30
2018-04-27T12:58:19.880Z,54.60
2018-04-27T13:00:47.332Z,54.40
2018-04-27T13:03:14.808Z,53.80
2018-04-27T13:05:43.167Z,54.60
2018-04-27T13:08:10.701Z,54.60
2018-04-27T13:10:38.156Z,54.70
2018-04-27T13:13:05.637Z,54.60
2018-04-27T13:15:33.129Z,54.40
2018-04-27T13:18:00.597Z,53.50
2018-04-27T13:20:30.979Z,53.50
2018-04-27T13:22:58.453Z,53.40
2018-04-27T13:25:25.955Z,53.40
2018-04-27T13:27:53.455Z,53.10
2018-04-27T13:30:20.968Z,53.40
2018-04-27T13:32:48.413Z,53.50
2018-04-27T13:35:15.992Z,53.60
2018-04-27T13:37:43.500Z,53.30
2018-04-27T13:40:11.295Z,53.20
2018-04-27T13:42:38.798Z,53.40
2018-04-27T13:45:06.319Z,53.70
2018-04-27T13:47:33.798Z,52.90
2018-04-27T13:50:01.288Z,53.00
2018-04-27T13:52:28.809Z,52.80
2018-04-27T13:54:56.400Z,52.40
2018-04-27T13:57:23.950Z,52.60
2018-04-27T13:59:51.404Z,52.00
2018-04-27T14:02:18.995Z,52.20
2018-04-27T14:04:46.476Z,52.20
2018-04-27T14:07:14.895Z,51.90
2018-04-27T14:09:42.562Z,51.90
2018-04-27T14:12:10.048Z,51.80
2018-04-27T14:14:37.551Z,51.50
2018-04-27T14:17:05.124Z,51.60
2018-04-27T14:19:32.638Z,51.70
2018-04-27T14:22:00.172Z,52.00
2018-04-27T14:24:29.119Z,51.80
2018-04-27T14:26:56.637Z,51.90
2018-04-27T14:29:24.085Z,51.70
2018-04-27T14:31:51.585Z,50.90
2018-04-27T14:34:19.876Z,51.20
2018-04-27T14:36:47.333Z,51.20
2018-04-27T14:39:14.984Z,51.00
2018-04-27T14:41:43.232Z,50.00
2018-04-27T14:44:12.749Z,50.00
2018-04-27T14:46:40.359Z,50.30
2018-04-27T14:49:13.544Z,50.20
2018-04-27T14:51:41.041Z,50.20
2018-04-27T14:54:08.612Z,50.30
2018-04-27T14:56:38.193Z,49.50
2018-04-27T14:59:05.746Z,49.00
2018-04-27T15:01:33.307Z,49.00
2018-04-27T15:04:00.897Z,48.70
2018-04-27T15:06:28.378Z,48.90
2018-04-27T15:08:56.869Z,49.10
2018-04-27T15:11:24.400Z,49.00
2018-04-27T15:13:52.850Z,49.40
2018-04-27T15:16:20.391Z,48.90
2018-04-27T15:18:47.904Z,48.50
2018-04-27T15:21:15.665Z,48.20
2018-04-27T15:23:43.153Z,48.40
2018-04-27T15:26:10.766Z,49.60
2018-04-27T15:28:38.293Z,49.50
2018-04-27T15:31:05.900Z,49.10
2018-04-27T15:39:29.920Z,49.60
2018-04-27T15:41:58.861Z,50.20
2018-04-27T15:44:26.388Z,49.40
2018-04-27T15:46:53.963Z,49.20
2018-04-27T15:49:24.474Z,48.70
2018-04-27T15:51:52.883Z,48.60
2018-04-27T15:54:20.443Z,48.00
2018-04-27T15:56:47.990Z,47.90
2018-04-27T15:59:16.302Z,48.00
2018-04-27T16:01:46.817Z,47.90
2018-04-27T16:07:01.298Z,48.10
2018-04-27T16:09:30.490Z,48.10
2018-04-27T16:11:58.103Z,48.40
2018-04-27T16:14:36.156Z,48.50
2018-04-27T16:17:03.893Z,48.40
2018-04-27T16:19:32.228Z,49.20
2018-04-27T16:22:00.571Z,49.20
2018-04-27T16:24:28.218Z,48.50
2018-04-27T16:27:03.453Z,48.40
2018-04-27T16:29:36.799Z,49.00
2018-04-27T16:32:05.288Z,49.30
2018-04-27T16:34:32.888Z,49.30
2018-04-27T16:37:24.060Z,49.70
2018-04-27T16:39:52.547Z,49.60
2018-04-27T16:42:20.889Z,49.80
2018-04-27T16:44:49.867Z,49.80
2018-04-27T16:47:17.477Z,49.70
2018-04-27T16:55:36.390Z,49.90
2018-04-27T16:58:03.924Z,49.90
2018-04-27T17:00:31.440Z,50.00
2018-04-27T17:02:59.808Z,50.40
2018-04-27T17:05:27.328Z,50.30
2018-04-27T17:08:02.970Z,50.20
2018-04-27T17:10:30.665Z,50.40
2018-04-27T17:12:58.181Z,50.60
2018-04-27T17:15:25.755Z,50.80
2018-04-27T17:17:53.341Z,50.90
2018-04-27T17:20:20.893Z,50.90
2018-04-27T17:22:48.503Z,50.90
2018-04-27T17:25:16.068Z,51.10
2018-04-27T17:27:43.664Z,51.10
2018-04-27T17:30:11.157Z,51.10
2018-04-27T17:32:39.437Z,51.20
2018-04-27T17:35:08.070Z,51.20
2018-04-27T17:37:35.636Z,51.10
2018-04-27T17:40:04.157Z,51.20
2018-04-27T17:42:31.746Z,51.20
2018-04-27T17:44:59.302Z,51.30
2018-04-27T17:47:26.887Z,51.40
2018-04-27T17:49:54.414Z,51.40
2018-04-27T17:52:21.984Z,51.30
2018-04-27T17:54:49.607Z,51.50
2018-04-27T17:57:17.193Z,51.40
2018-04-27T17:59:45.920Z,51.50
2018-04-27T18:02:13.434Z,51.60
2018-04-27T18:05:00.187Z,51.70
2018-04-27T18:07:27.814Z,51.90
2018-04-27T18:09:55.511Z,52.00
2018-04-27T18:12:35.873Z,52.10
2018-04-27T18:15:03.457Z,52.10
2018-04-27T18:17:34.021Z,52.30
2018-04-27T18:20:02.568Z,52.60
2018-04-27T18:22:30.109Z,53.20
2018-04-27T18:24:57.688Z,52.70
2018-04-27T18:48:38.616Z,53.30
2018-04-27T18:51:06.140Z,53.40
2018-04-27T18:53:33.655Z,53.50
2018-04-27T19:13:12.225Z,54.20
2018-04-27T19:15:39.717Z,54.10
2018-04-27T19:18:07.221Z,54.40
2018-04-27T19:20:43.753Z,54.60
2018-04-27T19:23:18.197Z,54.70
2018-04-27T19:25:46.691Z,54.80
2018-04-27T19:28:14.214Z,55.50
2018-04-27T19:30:41.789Z,55.00
2018-04-27T19:33:10.131Z,55.00
2018-04-27T19:35:37.634Z,55.20
2018-04-27T19:38:06.006Z,55.40
2018-04-27T19:40:34.607Z,55.40
2018-04-27T19:43:21.478Z,55.60
2018-04-27T19:45:49.027Z,55.50
2018-04-27T19:48:17.247Z,55.70
2018-04-27T19:50:44.732Z,55.70
2018-04-27T19:53:13.149Z,55.80
2018-04-27T19:55:40.670Z,55.80
2018-04-27T19:58:08.148Z,55.80
2018-04-27T20:00:36.385Z,55.90
2018-04-27T20:03:04.660Z,56.10
2018-04-27T20:05:35.675Z,56.30
2018-04-27T20:08:03.241Z,56.10
2018-04-27T20:10:36.343Z,56.30
2018-04-27T20:13:04.668Z,56.30
2018-04-27T20:15:37.012Z,56.50
2018-04-27T20:18:07.103Z,56.80
2018-04-27T20:20:34.541Z,56.80
2018-04-27T20:23:02.001Z,56.80
2018-04-27T20:25:29.717Z,56.90
2018-04-27T20:27:57.230Z,57.00
2018-04-27T20:33:19.842Z,57.10
2018-04-27T20:35:47.243Z,57.20
2018-04-27T20:38:17.213Z,57.40
2018-04-27T20:40:45.754Z,57.30
2018-04-27T20:43:13.231Z,57.30
2018-04-27T20:45:40.688Z,57.40
2018-04-27T20:48:11.743Z,57.50
2018-04-27T20:50:40.014Z,57.60
2018-04-27T20:53:08.277Z,57.50
2018-04-27T20:55:37.673Z,57.50
2018-04-27T20:58:05.158Z,57.60
2018-04-27T21:00:33.576Z,57.80
2018-04-27T21:03:01.036Z,57.70
2018-04-27T21:05:29.259Z,57.90
2018-04-27T21:07:56.736Z,57.90
2018-04-27T21:10:24.252Z,58.10
2018-04-27T21:12:52.404Z,58.10
2018-04-27T21:15:19.881Z,58.10
2018-04-27T21:17:48.925Z,58.40
2018-04-27T21:20:16.379Z,58.40
2018-04-27T21:22:44.740Z,58.70
2018-04-27T21:25:13.014Z,58.60
2018-04-27T21:27:43.424Z,58.70
2018-04-27T21:30:11.835Z,58.90
2018-04-27T21:32:39.298Z,59.10
2018-04-27T21:35:06.767Z,59.10
2018-04-27T21:37:34.277Z,59.30
2018-04-27T21:40:01.743Z,59.30
2018-04-27T21:42:29.196Z,59.50
2018-04-27T21:44:56.744Z,59.70
2018-04-27T21:47:25.755Z,59.70
2018-04-27T21:49:53.885Z,59.70
2018-04-27T21:52:27.224Z,59.80
2018-04-27T21:54:55.481Z,59.80
2018-04-27T21:57:29.641Z,59.90
2018-04-27T21:59:58.736Z,60.10
2018-04-27T22:02:32.484Z,60.20
2018-04-27T22:05:06.644Z,60.20
2018-04-27T22:07:34.864Z,60.40
2018-04-27T22:10:02.395Z,60.40
2018-04-27T22:12:41.853Z,60.50
2018-04-27T22:15:10.324Z,60.70
2018-04-27T22:17:39.241Z,60.70
2018-04-27T22:20:08.626Z,60.80
2018-04-27T22:22:36.079Z,60.80
2018-04-27T22:25:09.321Z,60.80
2018-04-27T22:27:36.792Z,61.00
2018-04-27T22:33:24.944Z,61.00
2018-04-27T22:35:56.061Z,61.20
2018-04-27T22:38:35.344Z,61.10
2018-04-27T22:41:02.816Z,61.40
2018-04-27T22:43:39.412Z,61.40
2018-04-27T22:46:09.948Z,61.50
2018-04-27T22:48:44.899Z,61.50
2018-04-27T22:54:42.448Z,61.70
2018-04-27T22:57:37.373Z,61.90
2018-04-27T23:00:05.660Z,62.10
2018-04-27T23:05:26.187Z,62.30
2018-04-27T23:07:54.376Z,62.10
2018-04-27T23:10:22.646Z,62.30
2018-04-27T23:12:52.038Z,62.40
2018-04-27T23:15:19.489Z,62.60
2018-04-27T23:17:46.963Z,62.70
2018-04-27T23:20:17.410Z,62.80
2018-04-27T23:22:44.933Z,62.70
2018-04-27T23:25:14.157Z,62.80
2018-04-27T23:27:41.724Z,62.90
2018-04-27T23:30:09.176Z,63.00
2018-04-27T23:32:36.719Z,63.20
2018-04-27T23:35:04.173Z,63.20
2018-04-27T23:37:31.672Z,63.40
2018-04-27T23:40:05.780Z,63.70
2018-04-27T23:42:34.079Z,63.70
2018-04-27T23:45:01.533Z,63.60
2018-04-27T23:47:29.002Z,63.60
2018-04-27T23:49:56.628Z,63.70
2018-04-27T23:52:24.870Z,63.90
2018-04-27T23:54:52.332Z,63.90
2018-04-27T23:57:19.800Z,63.90
2018-04-27T23:59:50.939Z,63.90
